createdAt,value
2019-03-20T00:01:59.372Z,1.74
2019-03-20T00:04:31.520Z,1.76
2019-03-20T00:07:03.364Z,1.81
2019-03-20T00:09:35.167Z,1.86
2019-03-20T00:12:07.062Z,1.90
2019-03-20T00:14:38.840Z,1.87
2019-03-20T00:17:10.529Z,1.77
2019-03-20T00:19:42.184Z,1.62
2019-03-20T00:22:13.883Z,1.56
2019-03-20T00:24:45.670Z,1.41
2019-03-20T00:27:17.342Z,1.37
2019-03-20T00:29:49.033Z,1.43
2019-03-20T00:32:20.926Z,1.54
2019-03-20T00:35:00.503Z,1.49
2019-03-20T00:37:26.183Z,1.47
2019-03-20T00:39:58.977Z,1.49
2019-03-20T00:42:30.656Z,1.47
2019-03-20T00:45:02.330Z,1.56
2019-03-20T00:47:34.264Z,1.55
2019-03-20T00:50:06.628Z,1.53
2019-03-20T00:52:38.238Z,1.52
2019-03-20T00:55:10.073Z,1.48
2019-03-20T00:57:41.749Z,1.39
2019-03-20T01:00:16.057Z,1.37
2019-03-20T01:02:47.723Z,1.28
2019-03-20T01:05:19.405Z,1.26
2019-03-20T01:07:51.012Z,1.29
2019-03-20T01:10:22.642Z,1.16
2019-03-20T01:12:54.244Z,1.18
2019-03-20T01:15:26.002Z,1.16
2019-03-20T01:17:57.613Z,1.13
2019-03-20T01:20:29.293Z,1.15
2019-03-20T01:23:01.333Z,1.08
2019-03-20T01:25:35.087Z,1.15
2019-03-20T01:28:06.427Z,1.22
2019-03-20T01:30:39.251Z,1.13
2019-03-20T01:33:11.799Z,1.02
2019-03-20T01:35:43.525Z,0.84
2019-03-20T01:38:15.233Z,0.83
2019-03-20T01:40:46.840Z,0.83
2019-03-20T01:43:18.453Z,0.71
2019-03-20T01:45:50.128Z,0.79
2019-03-20T01:48:21.806Z,0.88
2019-03-20T01:50:53.519Z,0.94
2019-03-20T01:53:25.204Z,1.01
2019-03-20T01:55:56.878Z,1.08
2019-03-20T01:58:28.574Z,1.07
2019-03-20T02:01:00.265Z,1.01
2019-03-20T02:03:32.548Z,1.00
2019-03-20T02:06:04.528Z,0.91
2019-03-20T02:08:36.188Z,0.96
2019-03-20T02:11:08.857Z,0.98
2019-03-20T02:13:41.442Z,0.88
2019-03-20T02:16:13.121Z,0.95
2019-03-20T02:18:44.795Z,0.93
2019-03-20T02:21:16.474Z,0.96
2019-03-20T02:23:48.169Z,0.81
2019-03-20T02:26:19.863Z,0.80
2019-03-20T02:28:51.471Z,0.77
2019-03-20T02:31:23.161Z,0.89
2019-03-20T02:33:54.830Z,0.99
2019-03-20T02:36:26.503Z,0.99
2019-03-20T02:38:58.121Z,1.02
2019-03-20T02:41:29.757Z,1.03
2019-03-20T02:44:01.761Z,1.07
2019-03-20T02:46:33.612Z,0.86
2019-03-20T02:49:05.413Z,0.94
2019-03-20T02:51:37.283Z,0.93
2019-03-20T02:54:08.949Z,0.90
2019-03-20T02:56:40.603Z,0.96
2019-03-20T02:59:12.148Z,0.99
2019-03-20T03:01:43.634Z,0.99
2019-03-20T03:04:15.169Z,1.02
2019-03-20T03:06:46.740Z,1.01
2019-03-20T03:09:18.362Z,0.95
2019-03-20T03:11:49.925Z,0.86
2019-03-20T03:14:21.494Z,0.84
2019-03-20T03:16:53.197Z,0.72
2019-03-20T03:19:24.755Z,0.71
2019-03-20T03:21:56.340Z,0.67
2019-03-20T03:24:27.963Z,0.76
2019-03-20T03:26:59.514Z,0.72
2019-03-20T03:29:31.325Z,0.82
2019-03-20T03:32:02.819Z,0.81
2019-03-20T03:34:34.438Z,0.83
2019-03-20T03:37:05.990Z,0.86
2019-03-20T03:39:37.597Z,0.89
2019-03-20T03:42:09.185Z,0.84
2019-03-20T03:44:40.801Z,0.73
2019-03-20T03:47:12.430Z,0.75
2019-03-20T03:49:44.057Z,0.73
2019-03-20T03:52:15.626Z,0.59
2019-03-20T03:54:47.295Z,0.62
2019-03-20T03:57:18.851Z,0.58
2019-03-20T03:59:50.456Z,0.62
2019-03-20T04:02:22.081Z,0.47
2019-03-20T04:04:53.645Z,0.45
2019-03-20T04:07:25.422Z,0.46
2019-03-20T04:09:57.100Z,0.51
2019-03-20T04:12:28.795Z,0.49
2019-03-20T04:15:00.676Z,0.47
2019-03-20T04:17:33.554Z,0.43
2019-03-20T04:20:05.822Z,0.43
2019-03-20T04:22:37.529Z,0.47
2019-03-20T04:25:09.320Z,0.46
2019-03-20T04:27:41.141Z,0.46
2019-03-20T04:30:12.864Z,0.50
2019-03-20T04:32:44.614Z,0.35
2019-03-20T04:35:16.306Z,0.35
2019-03-20T04:37:48.090Z,0.39
2019-03-20T04:40:19.775Z,0.44
2019-03-20T04:42:51.448Z,0.44
2019-03-20T04:45:23.130Z,0.38
2019-03-20T04:47:54.800Z,0.26
2019-03-20T04:50:26.409Z,0.22
2019-03-20T04:52:58.016Z,0.25
2019-03-20T04:55:29.708Z,0.25
2019-03-20T04:58:01.720Z,0.23
2019-03-20T05:00:33.532Z,0.18
2019-03-20T05:03:05.438Z,0.15
2019-03-20T05:05:37.316Z,0.19
2019-03-20T05:08:09.089Z,0.13
2019-03-20T05:10:40.858Z,0.17
2019-03-20T05:13:12.538Z,0.21
2019-03-20T05:15:44.227Z,0.21
2019-03-20T05:18:15.882Z,0.26
2019-03-20T05:20:47.546Z,0.25
2019-03-20T05:23:19.141Z,0.31
2019-03-20T05:25:50.815Z,0.32
2019-03-20T05:28:22.484Z,0.33
2019-03-20T05:30:54.147Z,0.35
2019-03-20T05:33:25.821Z,0.33
2019-03-20T05:35:57.430Z,0.32
2019-03-20T05:38:29.102Z,0.34
2019-03-20T05:41:00.765Z,0.33
2019-03-20T05:43:32.629Z,0.28
2019-03-20T05:46:04.537Z,0.29
2019-03-20T05:48:36.205Z,0.36
2019-03-20T05:51:10.602Z,0.48
2019-03-20T05:53:42.289Z,0.61
2019-03-20T05:56:13.953Z,0.67
2019-03-20T05:58:46.642Z,0.70
2019-03-20T06:01:18.330Z,0.72
2019-03-20T06:03:50.006Z,0.66
2019-03-20T06:06:21.684Z,0.61
2019-03-20T06:08:53.453Z,0.60
2019-03-20T06:11:25.225Z,0.66
2019-03-20T06:13:58.330Z,0.72
2019-03-20T06:16:30.019Z,0.79
2019-03-20T06:19:01.817Z,0.81
2019-03-20T06:21:33.537Z,0.86
2019-03-20T06:24:05.391Z,0.68
2019-03-20T06:26:37.312Z,0.61
2019-03-20T06:29:09.008Z,0.63
2019-03-20T06:31:40.686Z,0.54
2019-03-20T06:34:12.328Z,0.46
2019-03-20T06:36:44.035Z,0.59
2019-03-20T06:39:15.745Z,0.67
2019-03-20T06:41:48.097Z,0.76
2019-03-20T06:44:21.745Z,0.86
2019-03-20T06:46:53.542Z,0.86
2019-03-20T06:49:25.252Z,0.97
2019-03-20T06:51:56.913Z,1.07
2019-03-20T06:54:28.609Z,1.14
2019-03-20T06:57:00.279Z,1.24
2019-03-20T06:59:57.053Z,1.35
2019-03-20T07:02:28.683Z,1.44
2019-03-20T07:05:31.964Z,1.54
2019-03-20T07:08:03.729Z,1.59
2019-03-20T07:11:18.172Z,1.68
2019-03-20T07:13:50.748Z,1.78
2019-03-20T07:16:22.539Z,1.89
2019-03-20T07:18:54.139Z,1.92
2019-03-20T07:21:25.811Z,2.05
2019-03-20T07:23:57.499Z,2.12
2019-03-20T07:26:29.205Z,2.20
2019-03-20T07:29:00.897Z,2.31
2019-03-20T07:31:32.643Z,2.45
2019-03-20T07:34:04.447Z,2.52
2019-03-20T07:36:37.486Z,2.62
2019-03-20T07:39:10.113Z,2.78
2019-03-20T07:41:41.789Z,2.93
2019-03-20T07:44:13.477Z,3.03
2019-03-20T07:46:45.155Z,3.16
2019-03-20T07:49:16.834Z,3.31
2019-03-20T07:51:48.505Z,3.48
2019-03-20T07:54:20.171Z,3.65
2019-03-20T07:56:51.801Z,3.77
2019-03-20T07:59:23.475Z,3.98
2019-03-20T08:01:55.144Z,4.06
2019-03-20T08:04:26.824Z,4.27
2019-03-20T08:06:58.496Z,4.45
2019-03-20T08:09:30.210Z,4.62
2019-03-20T08:12:02.043Z,4.82
2019-03-20T08:14:33.715Z,4.93
2019-03-20T08:17:05.434Z,5.06
2019-03-20T08:19:37.112Z,5.14
2019-03-20T08:22:09.060Z,5.35
2019-03-20T08:24:41.447Z,5.43
2019-03-20T08:27:13.195Z,5.58
2019-03-20T08:29:44.960Z,5.64
2019-03-20T08:32:16.701Z,5.90
2019-03-20T08:34:48.368Z,5.98
2019-03-20T08:37:20.030Z,6.12
2019-03-20T08:39:51.701Z,6.20
2019-03-20T08:42:23.380Z,6.25
2019-03-20T08:44:55.008Z,6.43
2019-03-20T08:47:26.607Z,6.56
2019-03-20T08:49:58.383Z,6.65
2019-03-20T08:52:30.055Z,6.70
2019-03-20T08:55:01.828Z,6.72
2019-03-20T08:57:34.618Z,6.83
2019-03-20T09:00:07.842Z,6.92
2019-03-20T09:02:39.611Z,6.94
2019-03-20T09:05:11.350Z,7.13
2019-03-20T09:07:47.203Z,7.17
2019-03-20T09:10:20.038Z,7.39
2019-03-20T09:12:51.970Z,7.47
2019-03-20T09:15:31.319Z,7.60
2019-03-20T09:18:06.081Z,7.61
2019-03-20T09:20:39.063Z,7.76
2019-03-20T09:23:11.915Z,7.90
2019-03-20T09:25:45.706Z,8.06
2019-03-20T09:28:21.833Z,8.31
2019-03-20T09:30:54.650Z,8.55
2019-03-20T09:33:26.679Z,8.55
2019-03-20T09:35:58.499Z,8.69
2019-03-20T09:38:30.127Z,8.68
2019-03-20T09:41:02.081Z,8.65
2019-03-20T09:43:34.006Z,8.81
2019-03-20T09:46:05.794Z,9.06
2019-03-20T09:48:37.475Z,8.92
2019-03-20T09:51:09.152Z,9.16
2019-03-20T09:53:46.838Z,9.27
2019-03-20T09:56:19.784Z,9.36
2019-03-20T09:58:51.501Z,9.48
2019-03-20T10:01:23.375Z,9.67
2019-03-20T10:03:55.066Z,9.81
2019-03-20T10:06:26.727Z,10.07
2019-03-20T10:08:58.423Z,10.22
2019-03-20T10:11:30.148Z,10.31
2019-03-20T10:14:01.992Z,10.32
2019-03-20T10:16:34.012Z,10.45
2019-03-20T10:19:05.735Z,10.39
2019-03-20T10:21:37.528Z,10.64
2019-03-20T10:24:09.208Z,10.94
2019-03-20T10:26:40.856Z,10.84
2019-03-20T10:29:12.588Z,10.49
2019-03-20T10:31:44.252Z,10.73
2019-03-20T10:34:16.035Z,10.99
2019-03-20T10:36:48.715Z,10.83
2019-03-20T10:39:20.768Z,11.29
2019-03-20T10:41:52.743Z,11.28
2019-03-20T10:44:24.420Z,11.41
2019-03-20T10:46:56.199Z,12.01
2019-03-20T10:49:27.887Z,12.01
2019-03-20T10:51:59.603Z,11.72
2019-03-20T10:54:32.927Z,11.96
2019-03-20T10:57:05.064Z,12.01
2019-03-20T10:59:36.751Z,12.17
2019-03-20T11:02:08.452Z,12.11
2019-03-20T11:04:43.862Z,11.86
2019-03-20T11:07:47.778Z,11.68
2019-03-20T11:11:01.065Z,12.20
2019-03-20T11:13:55.179Z,12.28
2019-03-20T11:16:56.216Z,12.19
2019-03-20T11:20:12.415Z,12.08
2019-03-20T11:23:16.810Z,12.16
2019-03-20T11:26:36.424Z,12.33
2019-03-20T11:28:54.947Z,12.51
2019-03-20T11:31:26.622Z,12.46
2019-03-20T11:33:58.408Z,12.44
2019-03-20T11:36:30.075Z,12.75
2019-03-20T11:39:01.756Z,12.61
2019-03-20T11:41:35.298Z,12.43
2019-03-20T11:44:06.983Z,12.25
2019-03-20T11:46:38.660Z,12.39
2019-03-20T11:49:10.269Z,12.44
2019-03-20T11:51:41.938Z,12.36
2019-03-20T11:54:13.618Z,12.25
2019-03-20T11:56:45.310Z,12.06
2019-03-20T11:59:18.015Z,12.22
2019-03-20T12:01:49.700Z,12.08
2019-03-20T12:04:21.335Z,12.04
2019-03-20T12:06:53.022Z,11.98
2019-03-20T12:09:24.707Z,11.69
2019-03-20T12:11:56.317Z,11.59
2019-03-20T12:14:27.994Z,11.52
2019-03-20T12:16:59.673Z,11.53
2019-03-20T12:19:31.556Z,11.49
2019-03-20T12:22:04.237Z,11.45
2019-03-20T12:24:35.844Z,11.40
2019-03-20T12:27:14.993Z,11.27
2019-03-20T12:29:40.956Z,11.28
2019-03-20T12:32:12.585Z,11.22
2019-03-20T12:34:44.195Z,11.34
2019-03-20T12:37:16.893Z,11.33
2019-03-20T12:39:53.034Z,11.40
2019-03-20T12:42:21.928Z,11.40
2019-03-20T12:44:53.690Z,11.26
2019-03-20T12:47:25.359Z,11.26
2019-03-20T12:49:57.077Z,11.27
2019-03-20T12:52:28.840Z,11.42
2019-03-20T12:55:00.516Z,11.40
2019-03-20T12:57:32.508Z,11.49
2019-03-20T13:00:05.096Z,11.33
2019-03-20T13:02:36.933Z,11.25
2019-03-20T13:05:09.331Z,11.27
2019-03-20T13:07:41.001Z,11.33
2019-03-20T13:10:16.922Z,11.37
2019-03-20T13:12:48.642Z,11.47
2019-03-20T13:15:21.582Z,11.56
2019-03-20T13:17:53.293Z,11.47
2019-03-20T13:20:24.984Z,11.38
2019-03-20T13:23:02.234Z,11.35
2019-03-20T13:25:35.247Z,11.35
2019-03-20T13:28:06.886Z,11.49
2019-03-20T13:30:44.463Z,11.31
2019-03-20T13:33:25.292Z,11.29
2019-03-20T13:35:49.447Z,11.38
2019-03-20T13:38:21.135Z,11.39
2019-03-20T13:40:52.815Z,11.52
2019-03-20T13:43:24.496Z,11.57
2019-03-20T13:45:56.095Z,11.62
2019-03-20T13:49:01.744Z,11.62
2019-03-20T13:52:13.465Z,11.58
2019-03-20T13:55:10.908Z,11.61
2019-03-20T13:58:11.849Z,11.71
2019-03-20T14:00:50.866Z,11.74
2019-03-20T14:03:24.428Z,11.69
2019-03-20T14:05:57.554Z,11.75
2019-03-20T14:08:29.481Z,11.83
2019-03-20T14:11:01.215Z,11.71
2019-03-20T14:13:33.173Z,11.59
2019-03-20T14:16:04.797Z,11.64
2019-03-20T14:18:36.440Z,11.51
2019-03-20T14:21:08.269Z,11.44
2019-03-20T14:23:39.837Z,11.49
2019-03-20T14:26:11.417Z,11.69
2019-03-20T14:28:43.072Z,11.78
2019-03-20T14:31:14.702Z,11.89
2019-03-20T14:33:46.333Z,11.91
2019-03-20T14:36:17.905Z,11.87
2019-03-20T14:38:50.896Z,11.84
2019-03-20T14:41:22.884Z,11.73
2019-03-20T14:43:54.515Z,11.84
2019-03-20T14:46:26.061Z,11.83
2019-03-20T14:48:57.702Z,11.83
2019-03-20T14:51:29.564Z,11.89
2019-03-20T14:54:01.181Z,11.90
2019-03-20T14:56:32.855Z,11.98
2019-03-20T14:59:04.557Z,11.94
2019-03-20T15:01:36.160Z,12.05
2019-03-20T15:04:09.283Z,11.98
2019-03-20T15:06:41.638Z,12.10
2019-03-20T15:09:13.305Z,12.09
2019-03-20T15:11:44.967Z,12.09
2019-03-20T15:14:16.643Z,12.12
2019-03-20T15:16:48.328Z,12.25
2019-03-20T15:19:19.998Z,12.41
2019-03-20T15:21:51.679Z,12.52
2019-03-20T15:24:23.279Z,12.58
2019-03-20T15:26:55.463Z,12.81
2019-03-20T15:29:27.133Z,12.91
2019-03-20T15:31:58.807Z,13.22
2019-03-20T15:34:30.496Z,13.56
2019-03-20T15:37:03.214Z,13.85
2019-03-20T15:39:35.212Z,14.34
2019-03-20T15:42:06.893Z,14.11
2019-03-20T15:44:38.754Z,14.35
2019-03-20T15:47:10.441Z,14.45
2019-03-20T15:49:42.154Z,14.29
2019-03-20T15:52:13.916Z,13.88
2019-03-20T15:54:45.607Z,13.88
2019-03-20T15:57:17.317Z,13.47
2019-03-20T15:59:49.196Z,13.25
2019-03-20T16:02:20.977Z,13.63
2019-03-20T16:04:52.778Z,14.10
2019-03-20T16:07:24.508Z,14.29
2019-03-20T16:09:56.279Z,14.29
2019-03-20T16:12:28.063Z,14.17
2019-03-20T16:14:59.891Z,15.10
2019-03-20T16:17:31.662Z,15.48
2019-03-20T16:20:05.548Z,15.48
2019-03-20T16:22:38.479Z,15.82
2019-03-20T16:25:10.724Z,15.99
2019-03-20T16:27:42.546Z,15.93
2019-03-20T16:30:18.960Z,16.47
2019-03-20T16:32:50.802Z,16.27
2019-03-20T16:35:22.718Z,15.58
2019-03-20T16:37:56.064Z,15.88
2019-03-20T16:40:28.287Z,16.06
2019-03-20T16:43:00.576Z,15.94
2019-03-20T16:45:34.134Z,15.45
2019-03-20T16:48:06.142Z,14.76
2019-03-20T16:50:37.824Z,14.09
2019-03-20T16:53:09.421Z,13.60
2019-03-20T16:55:41.104Z,13.13
2019-03-20T16:58:12.874Z,12.75
2019-03-20T17:00:44.556Z,12.57
2019-03-20T17:03:16.260Z,12.36
2019-03-20T17:05:47.897Z,12.11
2019-03-20T17:08:20.608Z,11.95
2019-03-20T17:10:52.302Z,11.81
2019-03-20T17:13:23.987Z,11.66
2019-03-20T17:15:55.676Z,11.50
2019-03-20T17:18:27.357Z,11.42
2019-03-20T17:20:59.047Z,11.29
2019-03-20T17:23:30.742Z,11.25
2019-03-20T17:26:02.611Z,11.16
2019-03-20T17:28:34.622Z,11.06
2019-03-20T17:31:06.727Z,11.06
2019-03-20T17:33:38.418Z,11.01
2019-03-20T17:36:10.105Z,11.04
2019-03-20T17:38:41.797Z,10.88
2019-03-20T17:41:13.489Z,10.73
2019-03-20T17:43:45.169Z,10.82
2019-03-20T17:46:17.499Z,10.79
2019-03-20T17:48:49.254Z,10.69
2019-03-20T17:51:20.933Z,10.64
2019-03-20T17:53:53.660Z,10.60
2019-03-20T17:56:25.359Z,10.58
2019-03-20T17:58:56.981Z,10.48
2019-03-20T18:01:29.021Z,10.30
2019-03-20T18:04:00.754Z,10.24
2019-03-20T18:06:32.950Z,10.13
2019-03-20T18:09:05.165Z,9.99
2019-03-20T18:11:36.874Z,9.90
2019-03-20T18:14:08.627Z,9.86
2019-03-20T18:16:40.514Z,9.81
2019-03-20T18:19:12.527Z,9.82
2019-03-20T18:21:44.283Z,9.85
2019-03-20T18:24:16.361Z,9.94
2019-03-20T18:26:48.106Z,9.88
2019-03-20T18:29:21.630Z,9.87
2019-03-20T18:31:53.627Z,9.92
2019-03-20T18:34:25.629Z,9.90
2019-03-20T18:37:03.819Z,9.93
2019-03-20T18:39:35.989Z,9.93
2019-03-20T18:42:09.603Z,9.93
2019-03-20T18:44:41.794Z,9.94
2019-03-20T18:47:13.991Z,9.94
2019-03-20T18:49:46.018Z,9.87
2019-03-20T18:52:17.719Z,9.93
2019-03-20T18:54:49.475Z,9.98
2019-03-20T18:57:21.830Z,9.98
2019-03-20T18:59:53.845Z,9.94
2019-03-20T19:02:25.781Z,9.93
2019-03-20T19:04:57.464Z,9.91
2019-03-20T19:07:29.718Z,9.88
2019-03-20T19:10:04.140Z,9.87
2019-03-20T19:12:37.104Z,9.88
2019-03-20T19:15:12.336Z,9.88
2019-03-20T19:17:44.802Z,9.92
2019-03-20T19:20:16.608Z,9.93
2019-03-20T19:22:48.585Z,9.94
2019-03-20T19:25:20.727Z,10.00
2019-03-20T19:27:53.003Z,10.02
2019-03-20T19:30:24.829Z,9.98
2019-03-20T19:32:56.500Z,9.97
2019-03-20T19:35:28.317Z,9.97
2019-03-20T19:38:00.626Z,9.93
2019-03-20T19:40:32.739Z,9.92
2019-03-20T19:43:05.177Z,9.90
2019-03-20T19:45:37.277Z,9.96
2019-03-20T19:48:09.080Z,9.87
2019-03-20T19:50:40.814Z,9.84
2019-03-20T19:53:13.603Z,9.86
2019-03-20T19:55:45.453Z,9.85
2019-03-20T19:58:17.107Z,9.81
2019-03-20T20:00:49.137Z,9.85
2019-03-20T20:03:20.838Z,9.78
2019-03-20T20:05:52.675Z,9.83
2019-03-20T20:08:24.620Z,9.88
2019-03-20T20:10:56.494Z,9.86
2019-03-20T20:13:32.248Z,9.84
2019-03-20T20:16:04.170Z,9.85
2019-03-20T20:18:35.962Z,9.76
2019-03-20T20:21:08.020Z,9.79
2019-03-20T20:23:39.793Z,9.73
2019-03-20T20:26:12.689Z,9.67
2019-03-20T20:28:45.559Z,9.66
2019-03-20T20:31:17.653Z,9.60
2019-03-20T20:33:49.442Z,9.61
2019-03-20T20:36:21.594Z,9.60
2019-03-20T20:38:53.414Z,9.57
2019-03-20T20:41:25.102Z,9.62
2019-03-20T20:43:56.799Z,9.61
2019-03-20T20:46:28.519Z,9.59
2019-03-20T20:49:00.203Z,9.62
2019-03-20T20:51:32.049Z,9.64
2019-03-20T20:54:03.847Z,9.59
2019-03-20T20:56:35.534Z,9.64
2019-03-20T20:59:07.249Z,9.69
2019-03-20T21:01:39.018Z,9.67
2019-03-20T21:04:10.686Z,9.68
2019-03-20T21:06:42.362Z,9.64
2019-03-20T21:09:14.040Z,9.71
2019-03-20T21:11:45.700Z,9.69
2019-03-20T21:14:17.394Z,9.69
2019-03-20T21:16:49.653Z,9.65
2019-03-20T21:19:40.774Z,9.61
2019-03-20T21:22:42.816Z,9.67
2019-03-20T21:25:19.244Z,9.67
2019-03-20T21:28:33.219Z,9.64
2019-03-20T21:31:20.795Z,9.60
2019-03-20T21:34:31.784Z,9.57
2019-03-20T21:37:39.063Z,9.58
2019-03-20T21:40:12.487Z,9.50
2019-03-20T21:43:19.720Z,9.50
2019-03-20T21:46:36.499Z,9.50
2019-03-20T21:49:08.715Z,9.51
2019-03-20T21:51:40.927Z,9.52
2019-03-20T21:55:01.556Z,9.55
2019-03-20T21:57:47.056Z,9.57
2019-03-20T22:00:50.735Z,9.41
2019-03-20T22:03:22.969Z,9.37
2019-03-20T22:06:44.448Z,9.41
2019-03-20T22:09:47.664Z,9.41
2019-03-20T22:12:29.149Z,9.47
2019-03-20T22:15:26.147Z,9.55
2019-03-20T22:18:49.880Z,9.55
2019-03-20T22:21:29.910Z,9.41
2019-03-20T22:24:18.023Z,9.52
2019-03-20T22:27:39.072Z,9.40
2019-03-20T22:30:11.283Z,9.33
2019-03-20T22:33:19.599Z,9.37
2019-03-20T22:36:01.747Z,9.30
2019-03-20T22:39:29.807Z,9.21
2019-03-20T22:42:32.497Z,9.21
2019-03-20T22:45:22.729Z,9.22
2019-03-20T22:48:38.242Z,9.23
2019-03-20T22:51:42.643Z,9.30
2019-03-20T22:54:58.377Z,9.27
2019-03-20T22:57:59.573Z,9.15
2019-03-20T23:00:33.456Z,9.22
2019-03-20T23:03:13.806Z,9.19
2019-03-20T23:05:46.007Z,9.19
2019-03-20T23:08:18.222Z,9.17
2019-03-20T23:10:51.408Z,9.26
2019-03-20T23:13:23.616Z,9.20
2019-03-20T23:15:55.809Z,9.23
2019-03-20T23:18:28.019Z,9.22
2019-03-20T23:21:00.212Z,9.20
2019-03-20T23:23:33.440Z,9.15
2019-03-20T23:26:05.647Z,9.17
2019-03-20T23:28:38.077Z,9.17
2019-03-20T23:31:10.303Z,9.18
2019-03-20T23:33:42.490Z,9.17
2019-03-20T23:36:14.693Z,9.21
2019-03-20T23:38:46.923Z,9.11
2019-03-20T23:41:19.124Z,9.14
2019-03-20T23:43:53.138Z,9.13
2019-03-20T23:46:25.249Z,9.19
2019-03-20T23:49:04.142Z,9.16
2019-03-20T23:51:36.481Z,9.18
2019-03-20T23:54:08.827Z,9.13
2019-03-20T23:56:41.127Z,9.07
2019-03-20T23:59:13.332Z,9.06
